Time;durP1;ratioP1;P1;durP2;ratioP2;P2;SDS_P1;SDS_P2;PMS_P1;PMS_P2;Temp;Humidity;BMP_temperature;BMP_pressure;BME280_temperature;BME280_humidity;BME280_pressure;Samples;Min_cycle;Max_cycle;Signal;HPM_P1;HPM_P2
2023/09/26 00:00:38;;;;;;;9.43;5.38;;;15.80;99.90;;;;;;5076882;28;20048;-81
2023/09/26 00:03:06;;;;;;;9.57;5.25;;;15.80;99.90;;;;;;5072053;28;20044;-81
2023/09/26 00:05:32;;;;;;;10.15;5.53;;;15.80;99.90;;;;;;5076204;28;20037;-81
2023/09/26 00:08:02;;;;;;;9.35;4.88;;;15.80;99.90;;;;;;5069566;28;20033;-81
2023/09/26 00:10:28;;;;;;;10.05;5.43;;;15.80;99.90;;;;;;5079945;28;20109;-81
2023/09/26 00:12:54;;;;;;;7.75;4.93;;;15.80;99.90;;;;;;5067958;28;20065;-82
2023/09/26 00:15:20;;;;;;;10.30;5.03;;;15.80;99.90;;;;;;5083728;28;20050;-82
2023/09/26 00:17:45;;;;;;;12.85;5.20;;;15.80;99.90;;;;;;5077020;28;20041;-81
2023/09/26 00:20:26;;;;;;;7.82;5.05;;;15.80;99.90;;;;;;5073060;28;20040;-81
2023/09/26 00:22:52;;;;;;;10.75;6.03;;;15.70;99.90;;;;;;5075177;28;20045;-80
2023/09/26 00:25:18;;;;;;;7.32;4.75;;;15.70;99.90;;;;;;5073111;28;20037;-82
2023/09/26 00:27:44;;;;;;;9.77;5.90;;;15.60;99.90;;;;;;5072653;28;20044;-80
2023/09/26 00:30:09;;;;;;;9.23;5.35;;;15.70;99.90;;;;;;5066688;28;20049;-81
2023/09/26 00:32:39;;;;;;;10.30;5.15;;;15.70;99.90;;;;;;5067350;28;20048;-81
2023/09/26 00:35:08;;;;;;;8.02;5.15;;;15.70;99.90;;;;;;5064951;28;20068;-82
2023/09/26 00:37:34;;;;;;;7.28;5.35;;;15.70;99.90;;;;;;5064306;28;20036;-82
2023/09/26 00:40:00;;;;;;;7.55;4.80;;;15.70;99.90;;;;;;5077376;28;20054;-82
2023/09/26 00:42:27;;;;;;;10.13;5.75;;;15.70;99.90;;;;;;5074797;28;20047;-81
2023/09/26 00:44:52;;;;;;;10.20;5.20;;;15.70;99.90;;;;;;5071689;28;20537;-81
2023/09/26 00:47:19;;;;;;;8.18;5.47;;;15.60;99.90;;;;;;5065876;28;20033;-81
2023/09/26 00:49:46;;;;;;;6.88;4.75;;;15.60;99.90;;;;;;5068854;28;20047;-82
2023/09/26 00:52:12;;;;;;;6.45;4.82;;;15.60;99.90;;;;;;5053445;28;20116;-81
2023/09/26 00:54:38;;;;;;;7.35;4.85;;;15.60;99.90;;;;;;5079995;28;20060;-80
2023/09/26 00:57:04;;;;;;;8.25;4.75;;;15.60;99.90;;;;;;5076902;28;20041;-81
2023/09/26 00:59:32;;;;;;;8.35;4.40;;;16.00;99.90;;;;;;5067050;28;20531;-82
2023/09/26 01:01:58;;;;;;;10.63;4.88;;;15.50;99.90;;;;;;5065167;28;20087;-82
2023/09/26 01:04:24;;;;;;;8.40;4.85;;;15.50;99.90;;;;;;5058637;28;20048;-81
2023/09/26 01:06:49;;;;;;;7.18;5.25;;;15.40;99.90;;;;;;5072621;28;20137;-81
2023/09/26 01:09:15;;;;;;;8.93;4.93;;;15.40;99.90;;;;;;5066405;28;20068;-81
2023/09/26 01:11:42;;;;;;;7.13;5.20;;;15.40;99.90;;;;;;5077017;28;20067;-81
2023/09/26 01:14:07;;;;;;;9.43;5.30;;;15.40;99.90;;;;;;5078464;28;20074;-82
2023/09/26 01:16:33;;;;;;;8.80;5.00;;;15.40;99.90;;;;;;5064257;28;20122;-81
2023/09/26 01:19:02;;;;;;;10.20;5.07;;;15.30;99.90;;;;;;5077641;28;20033;-81
2023/09/26 01:21:28;;;;;;;8.50;4.93;;;15.30;99.90;;;;;;5078232;28;20120;-82
2023/09/26 01:23:56;;;;;;;10.48;4.40;;;15.30;99.90;;;;;;5079450;28;20371;-81
2023/09/26 01:26:22;;;;;;;7.60;5.35;;;15.20;99.90;;;;;;5061856;28;20041;-81
2023/09/26 01:28:48;;;;;;;12.07;5.75;;;15.20;99.90;;;;;;5071449;28;20044;-81
2023/09/26 01:31:14;;;;;;;7.63;5.30;;;15.20;99.90;;;;;;5051163;28;20043;-81
2023/09/26 01:33:40;;;;;;;8.98;5.32;;;15.10;99.90;;;;;;5065915;28;20518;-82
2023/09/26 01:36:06;;;;;;;10.48;5.07;;;15.10;99.90;;;;;;5073968;28;20090;-82
2023/09/26 01:38:32;;;;;;;9.07;5.20;;;15.10;99.90;;;;;;5067809;28;20426;-82
2023/09/26 01:40:58;;;;;;;9.70;6.20;;;15.40;99.90;;;;;;5070613;28;20065;-82
2023/09/26 01:43:24;;;;;;;8.52;5.78;;;15.00;99.90;;;;;;5065094;28;20048;-81
2023/09/26 01:45:51;;;;;;;9.57;6.07;;;15.00;99.90;;;;;;5066531;28;20045;-81
2023/09/26 01:48:17;;;;;;;12.50;6.43;;;15.00;99.90;;;;;;5067406;28;20081;-82
2023/09/26 01:50:42;;;;;;;10.75;7.57;;;14.90;99.90;;;;;;5082273;28;20036;-81
2023/09/26 01:53:10;;;;;;;8.65;6.38;;;14.90;99.90;;;;;;5068777;28;20127;-81
2023/09/26 01:55:38;;;;;;;11.10;7.03;;;14.80;99.90;;;;;;5066034;28;20810;-80
2023/09/26 01:58:06;;;;;;;9.93;7.60;;;14.80;99.90;;;;;;5068028;28;20033;-81
2023/09/26 02:00:32;;;;;;;8.77;6.90;;;14.80;99.90;;;;;;5074197;28;20483;-82
2023/09/26 02:02:58;;;;;;;10.52;7.25;;;14.80;99.90;;;;;;5080757;28;20037;-81
2023/09/26 02:05:24;;;;;;;9.50;7.35;;;14.80;99.90;;;;;;5073494;28;20495;-80
2023/09/26 02:07:53;;;;;;;11.43;6.97;;;14.70;99.90;;;;;;5075083;28;20041;-81
2023/09/26 02:10:19;;;;;;;11.52;7.82;;;14.70;99.90;;;;;;5080999;28;20040;-81
2023/09/26 02:12:48;;;;;;;11.07;6.93;;;14.70;99.90;;;;;;5077885;28;20170;-80
2023/09/26 02:15:15;;;;;;;11.80;6.15;;;14.70;99.90;;;;;;5075460;28;20469;-80
2023/09/26 02:17:42;;;;;;;9.73;6.22;;;14.70;99.90;;;;;;5063187;28;20045;-80
2023/09/26 02:20:14;;;;;;;12.57;6.60;;;14.70;99.90;;;;;;5075611;28;20041;-82
2023/09/26 02:22:50;;;;;;;9.90;6.22;;;14.60;99.90;;;;;;5067975;28;20036;-82
2023/09/26 02:25:20;;;;;;;11.68;6.95;;;14.60;99.90;;;;;;5047143;28;20482;-81
2023/09/26 02:27:47;;;;;;;11.68;7.57;;;14.60;99.90;;;;;;5063843;28;20032;-81
2023/09/26 02:30:16;;;;;;;10.35;7.07;;;14.60;99.90;;;;;;5079123;28;20047;-81
2023/09/26 02:32:45;;;;;;;10.73;7.43;;;14.60;99.90;;;;;;5069225;28;20056;-80
2023/09/26 02:35:13;;;;;;;14.30;8.77;;;14.60;99.90;;;;;;5066698;28;20392;-81
2023/09/26 02:37:39;;;;;;;14.15;9.13;;;14.60;99.90;;;;;;5071419;28;20514;-80
2023/09/26 02:40:09;;;;;;;10.80;8.20;;;14.60;99.90;;;;;;5071412;28;20064;-82
2023/09/26 02:42:43;;;;;;;12.32;8.68;;;14.50;99.90;;;;;;5066022;28;20125;-81
2023/09/26 02:45:10;;;;;;;10.88;9.05;;;14.50;99.90;;;;;;5062181;28;20044;-81
2023/09/26 02:47:36;;;;;;;14.93;9.75;;;14.40;99.90;;;;;;5067520;28;20044;-82
2023/09/26 02:50:01;;;;;;;12.80;9.60;;;14.40;99.90;;;;;;5074568;28;20395;-81
2023/09/26 02:52:27;;;;;;;13.32;9.23;;;14.40;99.90;;;;;;5071721;28;20041;-81
2023/09/26 02:54:56;;;;;;;12.75;9.75;;;14.40;99.90;;;;;;5064402;28;20174;-81
2023/09/26 02:57:22;;;;;;;12.77;9.15;;;14.40;99.90;;;;;;5061519;28;20056;-80
2023/09/26 02:59:48;;;;;;;11.20;9.05;;;14.30;99.90;;;;;;5086720;28;20041;-80
2023/09/26 03:02:14;;;;;;;15.82;9.85;;;14.30;99.90;;;;;;5068816;28;20048;-80
2023/09/26 03:04:39;;;;;;;11.60;8.50;;;14.20;99.90;;;;;;5059561;28;20040;-80
2023/09/26 03:07:05;;;;;;;15.63;9.35;;;14.20;99.90;;;;;;5082128;28;20128;-80
2023/09/26 03:09:31;;;;;;;12.23;8.63;;;14.20;99.90;;;;;;5081384;28;20207;-80
2023/09/26 03:11:57;;;;;;;10.70;8.70;;;14.10;99.90;;;;;;5071288;28;20059;-80
2023/09/26 03:14:25;;;;;;;14.18;8.98;;;14.10;99.90;;;;;;5073762;28;20048;-81
2023/09/26 03:16:50;;;;;;;12.85;7.35;;;14.10;99.90;;;;;;5088942;28;20097;-80
2023/09/26 03:19:20;;;;;;;14.02;9.10;;;14.00;99.90;;;;;;5086258;28;20041;-80
2023/09/26 03:21:46;;;;;;;12.88;8.93;;;14.00;99.90;;;;;;5103122;28;20044;-79
2023/09/26 03:24:11;;;;;;;15.10;9.40;;;14.00;99.90;;;;;;5083746;28;20101;-78
2023/09/26 03:26:40;;;;;;;12.13;8.23;;;14.00;99.90;;;;;;5086392;28;20686;-80
2023/09/26 03:29:06;;;;;;;9.52;7.93;;;14.00;99.90;;;;;;5073137;28;20044;-80
2023/09/26 03:31:34;;;;;;;11.82;8.55;;;14.00;99.90;;;;;;5076825;28;20041;-81
2023/09/26 03:34:00;;;;;;;8.88;7.18;;;14.00;99.90;;;;;;5076439;28;20391;-80
2023/09/26 03:36:25;;;;;;;11.48;8.70;;;14.00;99.90;;;;;;5059681;28;20129;-80
2023/09/26 03:38:51;;;;;;;13.27;8.35;;;14.00;99.90;;;;;;5069915;28;20044;-82
2023/09/26 03:41:20;;;;;;;9.85;7.53;;;14.00;99.90;;;;;;5073883;28;20099;-80
2023/09/26 03:43:45;;;;;;;13.35;8.13;;;13.90;99.90;;;;;;5071917;28;20045;-80
2023/09/26 03:46:11;;;;;;;13.48;7.75;;;13.90;99.90;;;;;;5043483;28;20124;-80
2023/09/26 03:48:37;;;;;;;10.80;7.78;;;13.90;99.90;;;;;;5062838;28;20033;-81
2023/09/26 03:51:13;;;;;;;21.48;8.75;;;13.80;99.90;;;;;;5090435;28;20052;-81
2023/09/26 03:53:40;;;;;;;10.63;8.27;;;13.80;99.90;;;;;;5055774;28;20033;-81
2023/09/26 03:56:07;;;;;;;9.85;7.43;;;13.80;99.90;;;;;;5067033;28;20036;-80
2023/09/26 03:58:34;;;;;;;10.23;7.65;;;13.80;99.90;;;;;;5077386;28;20410;-80
2023/09/26 04:01:16;;;;;;;12.57;8.02;;;13.80;99.90;;;;;;5079255;28;20182;-80
2023/09/26 04:03:49;;;;;;;13.75;8.43;;;13.80;99.90;;;;;;5066040;28;20117;-79
2023/09/26 04:06:18;;;;;;;13.40;8.68;;;13.70;99.90;;;;;;5071564;28;20044;-80
2023/09/26 04:08:44;;;;;;;12.00;8.35;;;13.70;99.90;;;;;;5069750;28;20048;-81
2023/09/26 04:11:17;;;;;;;10.45;7.38;;;13.60;99.90;;;;;;5068472;28;20033;-80
2023/09/26 04:13:46;;;;;;;13.32;7.90;;;13.60;99.90;;;;;;5080077;28;20084;-80
2023/09/26 04:16:12;;;;;;;11.50;8.20;;;13.60;99.90;;;;;;5065369;28;20132;-80
2023/09/26 04:18:38;;;;;;;10.73;7.20;;;13.60;99.90;;;;;;5095547;28;20041;-80
2023/09/26 04:21:06;;;;;;;9.50;7.80;;;13.60;99.90;;;;;;5068035;28;20033;-80
2023/09/26 04:23:31;;;;;;;11.27;7.13;;;13.50;99.90;;;;;;5081189;28;20126;-81
2023/09/26 04:25:57;;;;;;;11.63;8.57;;;13.50;99.90;;;;;;5081791;28;20102;-81
2023/09/26 04:28:23;;;;;;;17.70;8.13;;;13.50;99.90;;;;;;5062299;28;20482;-79
2023/09/26 04:30:49;;;;;;;11.48;8.18;;;13.40;99.90;;;;;;5062212;28;20517;-81
2023/09/26 04:33:16;;;;;;;13.82;8.73;;;13.40;99.90;;;;;;5070952;28;20060;-80
2023/09/26 04:35:41;;;;;;;13.05;8.68;;;13.40;99.90;;;;;;5091451;28;20459;-80
2023/09/26 04:38:07;;;;;;;12.77;8.55;;;13.40;99.90;;;;;;5066204;28;20040;-80
2023/09/26 04:40:34;;;;;;;12.25;8.45;;;13.40;99.90;;;;;;5065238;28;20056;-79
2023/09/26 04:43:04;;;;;;;12.30;8.48;;;13.40;99.90;;;;;;5071252;28;20181;-80
2023/09/26 04:45:33;;;;;;;12.77;8.95;;;13.50;99.90;;;;;;5057195;28;20053;-80
2023/09/26 04:48:02;;;;;;;11.90;9.10;;;13.40;99.90;;;;;;5072131;28;20045;-80
2023/09/26 04:50:31;;;;;;;13.88;9.27;;;13.50;99.90;;;;;;5044426;28;20393;-80
2023/09/26 04:52:59;;;;;;;12.60;9.38;;;13.50;99.90;;;;;;5065846;28;20045;-81
2023/09/26 04:55:26;;;;;;;11.35;8.85;;;13.50;99.90;;;;;;5055313;28;20656;-79
2023/09/26 04:57:53;;;;;;;14.82;9.13;;;13.60;99.90;;;;;;5043578;28;20773;-80
2023/09/26 05:00:19;;;;;;;11.90;8.93;;;13.60;99.90;;;;;;5078934;28;20061;-81
2023/09/26 05:02:46;;;;;;;14.77;9.75;;;13.70;99.90;;;;;;5062840;28;20040;-79
2023/09/26 05:05:12;;;;;;;14.48;10.00;;;13.70;99.90;;;;;;5063579;28;20041;-79
2023/09/26 05:07:41;;;;;;;16.98;10.02;;;13.70;99.90;;;;;;5073682;28;20041;-80
2023/09/26 05:10:12;;;;;;;13.40;8.90;;;13.70;99.90;;;;;;5079293;28;20048;-80
2023/09/26 05:12:40;;;;;;;14.07;9.20;;;13.80;99.90;;;;;;5052625;28;20534;-80
2023/09/26 05:15:12;;;;;;;;;;;13.80;99.90;;;;;;5067114;28;20051;-80
2023/09/26 05:17:42;;;;;;;14.07;11.18;;;13.80;99.90;;;;;;5082785;28;19924;-80
2023/09/26 05:20:13;;;;;;;18.63;13.40;;;13.70;99.90;;;;;;5067739;28;20052;-81
2023/09/26 05:22:44;;;;;;;21.27;15.45;;;13.80;99.90;;;;;;5054086;28;20128;-80
2023/09/26 05:25:11;;;;;;;21.35;15.50;;;13.80;99.90;;;;;;5079829;28;20051;-80
2023/09/26 05:27:39;;;;;;;18.42;15.82;;;13.80;99.90;;;;;;5096649;28;20401;-81
2023/09/26 05:30:09;;;;;;;21.35;15.27;;;13.30;99.90;;;;;;5078588;28;20041;-81
2023/09/26 05:32:35;;;;;;;17.40;15.32;;;13.80;99.90;;;;;;5056001;28;20049;-80
2023/09/26 05:35:01;;;;;;;21.17;15.02;;;13.70;99.90;;;;;;5067554;28;20045;-80
2023/09/26 05:37:27;;;;;;;18.40;15.18;;;13.80;99.90;;;;;;5050302;28;20498;-81
2023/09/26 05:39:53;;;;;;;24.58;15.95;;;13.70;99.90;;;;;;5072531;28;20040;-80
2023/09/26 05:42:19;;;;;;;19.60;15.38;;;13.70;99.90;;;;;;5075478;28;20104;-80
2023/09/26 05:44:45;;;;;;;20.75;14.45;;;13.70;99.90;;;;;;5063373;28;20041;-81
2023/09/26 05:47:10;;;;;;;17.88;14.52;;;13.60;99.90;;;;;;5084497;28;20066;-80
2023/09/26 05:49:36;;;;;;;21.95;14.18;;;13.60;99.90;;;;;;5048996;28;20440;-80
2023/09/26 05:52:02;;;;;;;18.63;13.35;;;13.60;99.90;;;;;;5074433;28;20070;-79
2023/09/26 05:54:30;;;;;;;25.75;14.35;;;13.60;99.90;;;;;;5087987;28;20044;-80
2023/09/26 05:56:56;;;;;;;17.30;14.57;;;13.60;99.90;;;;;;5080468;28;20116;-80
2023/09/26 05:59:22;;;;;;;21.65;14.57;;;13.60;99.90;;;;;;5069806;28;20068;-81
2023/09/26 06:01:48;;;;;;;18.70;13.48;;;13.60;99.90;;;;;;5094150;28;20036;-81
2023/09/26 06:04:14;;;;;;;18.63;13.70;;;13.60;99.90;;;;;;5066122;28;20076;-81
2023/09/26 06:06:39;;;;;;;16.52;13.50;;;13.60;99.90;;;;;;5063661;28;20053;-81
2023/09/26 06:09:06;;;;;;;24.45;17.15;;;13.60;99.90;;;;;;5088391;28;20054;-81
2023/09/26 06:11:32;;;;;;;22.10;14.88;;;13.60;99.90;;;;;;5046768;28;20553;-82
2023/09/26 06:13:58;;;;;;;18.70;14.40;;;13.60;99.90;;;;;;5075731;28;20051;-82
2023/09/26 06:16:24;;;;;;;18.35;13.23;;;13.60;99.90;;;;;;5077918;28;20487;-81
2023/09/26 06:18:49;;;;;;;22.77;13.07;;;13.60;99.90;;;;;;5078101;28;20047;-80
2023/09/26 06:21:15;;;;;;;13.88;12.13;;;13.60;99.90;;;;;;5071040;28;20091;-81
2023/09/26 06:23:41;;;;;;;15.10;12.57;;;14.00;99.90;;;;;;5076856;28;20076;-81
2023/09/26 06:26:08;;;;;;;18.80;12.18;;;13.60;99.90;;;;;;5081908;28;20032;-80
2023/09/26 06:28:37;;;;;;;20.45;12.43;;;13.70;99.90;;;;;;5064757;28;20041;-80
2023/09/26 06:31:07;;;;;;;18.20;12.55;;;13.70;99.90;;;;;;5071167;28;20044;-82
2023/09/26 06:33:39;;;;;;;23.00;12.75;;;13.70;99.90;;;;;;5073162;28;20044;-83
2023/09/26 06:36:13;;;;;;;22.08;13.07;;;13.80;99.90;;;;;;5060909;28;20096;-83
2023/09/26 06:38:39;;;;;;;17.60;12.23;;;13.80;99.90;;;;;;5061469;28;20097;-83
2023/09/26 06:41:06;;;;;;;19.35;13.07;;;13.80;99.90;;;;;;5061232;28;20080;-83
2023/09/26 06:43:38;;;;;;;17.23;13.20;;;13.80;99.90;;;;;;5082074;28;20048;-81
2023/09/26 06:46:08;;;;;;;19.13;12.80;;;13.80;99.90;;;;;;5083994;28;20034;-81
2023/09/26 06:48:35;;;;;;;18.30;12.23;;;13.90;99.90;;;;;;5067988;28;20040;-80
2023/09/26 06:51:04;;;;;;;19.35;12.15;;;13.90;99.90;;;;;;5071213;28;20048;-82
2023/09/26 06:53:30;;;;;;;18.50;11.85;;;13.90;99.90;;;;;;5078030;28;20047;-81
2023/09/26 06:56:05;;;;;;;16.27;11.57;;;13.90;99.90;;;;;;5057826;28;20041;-82
2023/09/26 06:58:32;;;;;;;17.70;11.13;;;14.00;99.90;;;;;;5056292;28;20041;-81
2023/09/26 07:00:59;;;;;;;17.85;11.07;;;14.10;99.90;;;;;;5072635;28;20047;-81
2023/09/26 07:03:28;;;;;;;17.63;11.02;;;14.10;99.90;;;;;;5056683;28;20044;-81
2023/09/26 07:05:55;;;;;;;15.07;10.10;;;14.10;99.90;;;;;;5051092;28;20055;-80
2023/09/26 07:08:21;;;;;;;14.10;10.15;;;14.20;99.90;;;;;;5080592;28;20072;-80
2023/09/26 07:10:47;;;;;;;16.73;9.35;;;14.30;99.90;;;;;;5078171;28;20052;-81
2023/09/26 07:13:13;;;;;;;17.58;9.45;;;14.30;99.90;;;;;;5060834;28;20104;-80
2023/09/26 07:15:40;;;;;;;12.95;9.27;;;15.20;99.90;;;;;;5080763;28;20048;-80
2023/09/26 07:18:13;;;;;;;13.60;9.40;;;14.60;99.90;;;;;;5082572;28;20043;-80
2023/09/26 07:20:48;;;;;;;12.43;8.70;;;14.60;99.90;;;;;;5081750;28;20044;-81
2023/09/26 07:23:15;;;;;;;15.45;9.02;;;14.70;99.90;;;;;;5088735;28;20033;-80
2023/09/26 07:25:41;;;;;;;12.80;9.15;;;14.80;99.90;;;;;;5050198;28;20136;-81
2023/09/26 07:28:07;;;;;;;15.65;9.30;;;14.90;99.90;;;;;;5066668;28;20211;-79
2023/09/26 07:30:32;;;;;;;13.70;8.05;;;15.00;99.90;;;;;;5052791;28;20044;-81
2023/09/26 07:32:58;;;;;;;16.90;8.35;;;14.90;99.90;;;;;;5083341;28;20053;-81
2023/09/26 07:35:25;;;;;;;13.73;9.00;;;15.10;99.90;;;;;;5080956;28;20139;-81
2023/09/26 07:37:51;;;;;;;13.43;8.57;;;15.10;99.90;;;;;;5083490;28;20483;-81
2023/09/26 07:40:18;;;;;;;13.88;8.10;;;15.10;99.90;;;;;;5078805;28;20100;-82
2023/09/26 07:42:43;;;;;;;12.13;8.20;;;15.20;99.90;;;;;;5053353;28;20099;-81
2023/09/26 07:45:14;;;;;;;14.27;8.05;;;15.20;99.90;;;;;;5091164;28;20036;-81
2023/09/26 07:47:40;;;;;;;14.55;8.18;;;15.30;99.90;;;;;;5081899;28;20047;-80
2023/09/26 07:50:06;;;;;;;14.95;8.32;;;15.30;99.90;;;;;;5081312;28;20037;-81
2023/09/26 07:52:32;;;;;;;12.90;8.02;;;15.30;99.90;;;;;;5062914;28;20041;-81
2023/09/26 07:54:57;;;;;;;14.40;8.10;;;15.40;99.90;;;;;;5076268;28;20406;-81
2023/09/26 07:57:23;;;;;;;16.23;8.23;;;15.70;99.90;;;;;;5069099;28;20133;-82
2023/09/26 07:59:49;;;;;;;15.35;9.35;;;15.60;99.90;;;;;;5078655;28;20047;-81
2023/09/26 08:02:15;;;;;;;16.08;8.63;;;15.60;99.90;;;;;;5077645;28;20116;-81
2023/09/26 08:04:41;;;;;;;11.35;7.47;;;15.20;99.90;;;;;;5071090;28;20045;-80
2023/09/26 08:07:09;;;;;;;11.77;8.15;;;15.80;99.90;;;;;;5046933;28;20049;-81
2023/09/26 08:09:35;;;;;;;16.02;8.60;;;15.90;99.90;;;;;;5074433;28;20037;-80
2023/09/26 08:12:01;;;;;;;16.60;7.82;;;16.00;99.90;;;;;;5072593;28;20380;-80
2023/09/26 08:14:27;;;;;;;14.48;8.43;;;16.10;99.90;;;;;;5062755;28;20090;-81
2023/09/26 08:16:52;;;;;;;14.55;7.90;;;16.10;99.90;;;;;;5062384;28;21840;-81
2023/09/26 08:19:18;;;;;;;16.67;8.20;;;16.20;99.90;;;;;;5062105;28;20040;-80
2023/09/26 08:21:47;;;;;;;14.88;7.22;;;16.40;99.90;;;;;;5081274;28;20503;-81
2023/09/26 08:24:13;;;;;;;11.40;7.03;;;16.40;99.90;;;;;;5078622;28;20470;-80
2023/09/26 08:26:38;;;;;;;13.10;7.25;;;16.60;99.90;;;;;;5064377;28;20051;-81
2023/09/26 08:29:05;;;;;;;10.57;6.88;;;16.60;99.90;;;;;;5066255;28;20048;-82
2023/09/26 08:31:31;;;;;;;14.60;8.52;;;16.70;99.90;;;;;;5067612;28;20049;-81
2023/09/26 08:33:57;;;;;;;18.48;9.25;;;16.70;99.90;;;;;;5060769;28;20045;-80
2023/09/26 08:36:26;;;;;;;18.58;7.57;;;16.80;99.90;;;;;;5080331;28;20060;-82
2023/09/26 08:38:53;;;;;;;14.88;7.00;;;16.80;99.90;;;;;;5053761;28;20041;-81
2023/09/26 08:41:19;;;;;;;10.70;6.63;;;16.80;99.90;;;;;;5064657;28;20128;-80
2023/09/26 08:43:46;;;;;;;11.23;5.97;;;16.70;99.90;;;;;;5047611;28;20045;-81
2023/09/26 08:46:12;;;;;;;10.05;6.38;;;16.70;99.90;;;;;;5068274;28;20045;-82
2023/09/26 08:48:39;;;;;;;10.32;6.70;;;16.70;99.90;;;;;;5061476;28;20102;-82
2023/09/26 08:51:05;;;;;;;12.65;6.68;;;16.70;99.90;;;;;;5067619;28;20072;-81
2023/09/26 08:53:31;;;;;;;9.77;6.38;;;16.80;99.90;;;;;;5063442;28;20144;-82
2023/09/26 08:55:58;;;;;;;9.80;6.43;;;16.80;99.90;;;;;;5063381;28;20053;-80
2023/09/26 08:58:26;;;;;;;15.38;6.40;;;17.00;99.90;;;;;;5073600;28;20135;-83
2023/09/26 09:00:51;;;;;;;;;;;17.00;99.90;;;;;;5085534;28;20048;-81
2023/09/26 09:03:17;;;;;;;9.68;6.10;;;17.00;99.90;;;;;;5085534;28;19924;-81
2023/09/26 09:05:46;;;;;;;11.68;6.60;;;17.00;99.90;;;;;;5081096;28;20051;-81
2023/09/26 09:08:22;;;;;;;11.02;6.50;;;17.00;99.90;;;;;;5076754;28;20403;-81
2023/09/26 09:10:52;;;;;;;11.20;6.47;;;17.10;99.90;;;;;;5078433;28;20112;-82
2023/09/26 09:13:32;;;;;;;13.15;6.28;;;17.30;99.90;;;;;;5086964;28;20103;-82
2023/09/26 09:16:15;;;;;;;14.63;6.40;;;17.50;99.90;;;;;;5079930;28;20109;-82
2023/09/26 09:18:57;;;;;;;10.88;6.13;;;17.70;99.90;;;;;;5085940;28;20488;-80
2023/09/26 09:21:30;;;;;;;15.20;6.97;;;17.80;99.90;;;;;;5080379;28;20052;-82
2023/09/26 09:23:57;;;;;;;13.77;6.75;;;18.10;99.90;;;;;;5087429;28;20036;-79
2023/09/26 09:26:24;;;;;;;12.00;6.50;;;18.40;99.90;;;;;;5090349;28;20040;-81
2023/09/26 09:28:52;;;;;;;13.80;6.85;;;18.70;99.90;;;;;;5061558;28;20045;-81
2023/09/26 09:31:18;;;;;;;12.00;6.35;;;18.90;99.90;;;;;;5069809;28;20049;-79
2023/09/26 09:33:46;;;;;;;8.82;6.25;;;19.10;99.90;;;;;;5064586;28;20055;-80
2023/09/26 09:36:15;;;;;;;15.45;5.88;;;18.90;99.90;;;;;;5076535;28;20360;-80
2023/09/26 09:38:41;;;;;;;12.77;6.60;;;18.80;99.90;;;;;;5082922;28;20037;-81
2023/09/26 09:41:08;;;;;;;14.00;6.68;;;18.70;99.90;;;;;;5073278;28;20056;-79
2023/09/26 09:43:37;;;;;;;9.53;5.83;;;18.60;99.90;;;;;;5075131;28;20120;-81
2023/09/26 09:46:10;;;;;;;11.25;6.88;;;18.50;99.90;;;;;;5090217;28;20045;-81
2023/09/26 09:48:44;;;;;;;11.90;6.55;;;18.60;99.90;;;;;;5071366;28;20055;-81
2023/09/26 09:51:15;;;;;;;12.15;6.78;;;18.80;99.90;;;;;;5078557;28;20040;-81
2023/09/26 09:53:42;;;;;;;10.88;6.43;;;18.90;99.90;;;;;;5080397;28;20105;-80
2023/09/26 09:56:18;;;;;;;10.98;6.50;;;18.90;99.90;;;;;;5081661;28;20081;-81
2023/09/26 09:58:49;;;;;;;14.45;6.70;;;19.00;99.90;;;;;;5071407;28;20053;-81
2023/09/26 10:01:19;;;;;;;13.48;6.47;;;19.30;99.90;;;;;;5050509;28;20102;-80
2023/09/26 10:03:50;;;;;;;11.50;6.70;;;19.60;99.90;;;;;;5078019;28;20033;-82
2023/09/26 10:06:17;;;;;;;9.40;5.72;;;19.70;99.90;;;;;;5055325;28;20064;-81
2023/09/26 10:08:44;;;;;;;12.55;5.60;;;19.80;99.90;;;;;;5082950;28;20051;-80
2023/09/26 10:11:10;;;;;;;13.80;5.90;;;19.80;99.90;;;;;;5080580;28;20055;-82
2023/09/26 10:13:40;;;;;;;8.27;5.20;;;19.80;99.90;;;;;;5073542;28;20120;-83
2023/09/26 10:16:20;;;;;;;10.25;5.30;;;19.90;99.90;;;;;;5058557;28;20179;-81
2023/09/26 10:18:48;;;;;;;10.93;5.45;;;20.00;99.90;;;;;;5062589;28;20033;-80
2023/09/26 10:21:27;;;;;;;16.73;5.60;;;20.30;99.90;;;;;;5077401;28;20135;-81
2023/09/26 10:24:05;;;;;;;11.02;5.50;;;20.50;99.90;;;;;;5068746;28;20183;-83
2023/09/26 10:26:38;;;;;;;10.65;5.38;;;20.60;99.90;;;;;;5057499;28;20045;-78
2023/09/26 10:29:10;;;;;;;12.95;5.80;;;20.60;99.90;;;;;;5058487;28;20450;-80
2023/09/26 10:31:41;;;;;;;10.60;5.20;;;20.60;99.90;;;;;;5061397;28;20380;-81
2023/09/26 10:34:07;;;;;;;14.02;5.53;;;20.70;99.90;;;;;;5057499;28;20072;-82
2023/09/26 10:36:37;;;;;;;11.82;5.97;;;20.80;99.90;;;;;;5059379;28;20124;-81
2023/09/26 10:39:05;;;;;;;9.10;4.88;;;21.10;99.90;;;;;;5067607;28;20049;-83
2023/09/26 10:41:37;;;;;;;12.25;5.90;;;21.10;99.90;;;;;;5077302;28;20040;-82
2023/09/26 10:44:04;;;;;;;9.05;4.88;;;21.00;99.90;;;;;;5075606;28;20041;-80
2023/09/26 10:46:30;;;;;;;9.18;5.55;;;20.80;99.90;;;;;;5059942;28;20056;-80
2023/09/26 10:49:00;;;;;;;11.70;5.15;;;20.60;99.90;;;;;;5056737;28;20050;-81
2023/09/26 10:51:26;;;;;;;13.77;5.50;;;20.50;99.90;;;;;;5058280;28;20071;-80
2023/09/26 10:53:52;;;;;;;9.90;5.32;;;20.50;99.90;;;;;;5073520;28;20044;-81
2023/09/26 10:56:18;;;;;;;10.15;5.30;;;20.60;99.90;;;;;;5078172;28;20052;-80
2023/09/26 10:58:46;;;;;;;8.60;4.60;;;20.70;99.90;;;;;;5076669;28;20040;-80
2023/09/26 11:01:12;;;;;;;10.07;4.88;;;20.80;99.90;;;;;;5051539;28;20137;-81
2023/09/26 11:03:39;;;;;;;9.02;5.05;;;20.90;99.90;;;;;;5075787;28;20040;-81
2023/09/26 11:06:06;;;;;;;11.65;4.55;;;20.90;99.90;;;;;;5082570;28;20040;-81
2023/09/26 11:08:33;;;;;;;6.50;4.28;;;20.90;99.90;;;;;;5071547;28;20048;-81
2023/09/26 11:10:58;;;;;;;7.53;4.07;;;20.90;99.90;;;;;;5051546;28;20060;-82
2023/09/26 11:13:25;;;;;;;7.32;4.45;;;20.90;99.90;;;;;;5067714;28;20036;-80
2023/09/26 11:15:54;;;;;;;8.93;4.40;;;20.90;99.90;;;;;;5088955;28;20041;-80
2023/09/26 11:18:20;;;;;;;10.75;5.15;;;20.80;99.90;;;;;;5091244;28;20045;-80
2023/09/26 11:20:46;;;;;;;6.13;4.53;;;20.80;99.90;;;;;;5072594;28;20058;-79
2023/09/26 11:23:32;;;;;;;8.00;4.75;;;20.70;99.90;;;;;;5072112;28;20103;-80
2023/09/26 11:26:03;;;;;;;7.85;4.43;;;20.60;99.90;;;;;;5074704;28;20513;-81
2023/09/26 11:28:32;;;;;;;8.05;4.78;;;20.60;99.90;;;;;;5097384;28;20047;-81
2023/09/26 11:30:59;;;;;;;8.38;4.82;;;20.50;99.90;;;;;;5077277;28;20044;-80
2023/09/26 11:33:25;;;;;;;5.55;3.83;;;20.40;99.90;;;;;;5084423;28;20056;-82
2023/09/26 11:35:51;;;;;;;7.35;4.95;;;20.40;99.90;;;;;;5072790;28;20045;-83
2023/09/26 11:38:20;;;;;;;13.32;4.90;;;20.30;99.90;;;;;;5061155;28;20036;-83
2023/09/26 11:40:46;;;;;;;9.65;4.32;;;20.30;99.90;;;;;;5066316;28;20045;-82
2023/09/26 11:43:11;;;;;;;8.65;4.40;;;20.30;99.90;;;;;;5065450;28;20056;-81
2023/09/26 11:45:37;;;;;;;12.38;4.65;;;20.20;99.90;;;;;;5069091;28;20044;-82
2023/09/26 11:48:05;;;;;;;6.47;4.70;;;20.20;99.90;;;;;;5088211;28;20044;-80
2023/09/26 11:50:31;;;;;;;8.30;4.97;;;20.20;99.90;;;;;;5077663;28;20045;-82
2023/09/26 11:53:03;;;;;;;22.17;5.55;;;20.20;99.90;;;;;;5085269;28;20041;-82
2023/09/26 11:55:35;;;;;;;9.95;5.05;;;20.20;99.90;;;;;;5087770;28;20033;-81
2023/09/26 11:58:03;;;;;;;6.70;4.75;;;19.80;99.90;;;;;;5090054;28;20092;-83
2023/09/26 12:00:29;;;;;;;11.80;5.20;;;20.40;99.90;;;;;;5069226;28;20040;-82
2023/09/26 12:02:55;;;;;;;10.50;4.63;;;20.40;99.90;;;;;;5086969;28;20104;-80
2023/09/26 12:05:27;;;;;;;9.80;5.20;;;20.50;99.90;;;;;;5080308;28;20055;-84
2023/09/26 12:07:55;;;;;;;6.50;4.90;;;20.70;99.90;;;;;;5056871;28;20037;-81
2023/09/26 12:10:23;;;;;;;8.68;4.95;;;20.60;99.90;;;;;;5086669;28;20049;-82
2023/09/26 12:12:49;;;;;;;6.97;4.75;;;20.60;99.90;;;;;;5092758;28;20082;-80
2023/09/26 12:15:17;;;;;;;6.53;4.25;;;20.80;99.90;;;;;;5092714;28;20048;-85
2023/09/26 12:17:43;;;;;;;9.77;5.20;;;20.90;99.90;;;;;;5090394;28;20040;-82
2023/09/26 12:20:10;;;;;;;6.85;4.50;;;21.00;99.90;;;;;;5074639;28;20055;-83
2023/09/26 12:22:36;;;;;;;7.45;4.93;;;21.10;99.90;;;;;;5088611;28;20051;-82
2023/09/26 12:25:02;;;;;;;9.60;4.50;;;21.10;99.90;;;;;;5090051;28;20080;-81
2023/09/26 12:27:28;;;;;;;8.95;4.20;;;21.20;99.90;;;;;;5083576;28;20055;-82
2023/09/26 12:29:54;;;;;;;12.20;4.65;;;21.30;99.90;;;;;;5068357;28;20103;-81
2023/09/26 12:32:22;;;;;;;10.43;4.03;;;21.40;99.90;;;;;;5079356;28;20052;-83
2023/09/26 12:34:48;;;;;;;8.85;3.83;;;21.60;99.90;;;;;;5090103;28;20052;-83
2023/09/26 12:37:14;;;;;;;10.82;3.78;;;21.80;99.90;;;;;;5062920;28;20075;-82
2023/09/26 12:39:40;;;;;;;6.68;3.13;;;22.10;99.90;;;;;;5054713;28;20061;-82